createdAt,value
2019-02-25T00:01:25.631Z,5.10
2019-02-25T00:03:55.628Z,4.97
2019-02-25T00:06:24.485Z,5.28
2019-02-25T00:08:54.711Z,5.28
2019-02-25T00:11:28.351Z,4.83
2019-02-25T00:13:58.662Z,4.65
2019-02-25T00:16:28.602Z,4.45
2019-02-25T00:18:57.754Z,4.47
2019-02-25T00:21:27.302Z,4.60
2019-02-25T00:23:57.089Z,4.50
2019-02-25T00:26:26.559Z,4.80
2019-02-25T00:29:15.231Z,4.50
2019-02-25T00:31:45.325Z,5.30
2019-02-25T00:34:14.444Z,5.50
2019-02-25T00:36:43.461Z,5.23
2019-02-25T00:39:13.011Z,5.40
2019-02-25T00:41:42.635Z,5.50
2019-02-25T00:44:12.334Z,4.75
2019-02-25T00:46:41.720Z,4.70
2019-02-25T00:50:20.162Z,4.83
2019-02-25T00:52:49.541Z,4.97
2019-02-25T00:57:12.191Z,4.67
2019-02-25T00:59:42.013Z,4.67
2019-02-25T01:02:11.071Z,5.20
2019-02-25T01:04:40.432Z,4.77
2019-02-25T01:07:09.492Z,5.05
2019-02-25T01:09:38.507Z,5.30
2019-02-25T01:12:08.881Z,4.87
2019-02-25T01:14:37.909Z,4.60
2019-02-25T01:17:06.979Z,4.40
2019-02-25T01:19:36.738Z,4.62
2019-02-25T01:22:06.294Z,4.30
2019-02-25T01:24:35.846Z,4.20
2019-02-25T01:27:05.454Z,4.40
2019-02-25T01:29:34.631Z,4.40
2019-02-25T01:32:03.626Z,4.53
2019-02-25T01:34:32.936Z,4.83
2019-02-25T01:37:05.244Z,5.03
2019-02-25T01:39:34.332Z,4.80
2019-02-25T01:42:03.414Z,4.80
2019-02-25T01:44:32.997Z,4.40
2019-02-25T01:47:03.523Z,4.80
2019-02-25T01:49:33.109Z,4.90
2019-02-25T01:52:02.158Z,4.60
2019-02-25T01:54:31.644Z,3.90
2019-02-25T01:57:01.728Z,4.35
2019-02-25T01:59:31.359Z,4.17
2019-02-25T02:02:00.800Z,4.15
2019-02-25T02:04:31.523Z,4.30
2019-02-25T02:07:00.830Z,4.78
2019-02-25T02:09:30.511Z,4.50
2019-02-25T02:11:59.744Z,4.70
2019-02-25T02:14:29.500Z,4.70
2019-02-25T02:16:58.880Z,4.70
2019-02-25T02:19:28.037Z,4.92
2019-02-25T02:21:57.071Z,4.70
2019-02-25T02:24:24.831Z,4.70
2019-02-25T02:26:53.909Z,4.43
2019-02-25T02:29:22.737Z,5.05
2019-02-25T02:31:52.354Z,4.10
2019-02-25T02:34:21.381Z,4.22
2019-02-25T02:36:50.747Z,4.17
2019-02-25T02:39:18.492Z,4.10
2019-02-25T02:42:21.699Z,4.10
2019-02-25T02:45:33.087Z,4.50
2019-02-25T02:48:28.160Z,4.53
2019-02-25T02:51:15.120Z,3.90
2019-02-25T02:53:44.990Z,4.30
2019-02-25T02:56:12.947Z,4.70
2019-02-25T02:58:42.641Z,4.97
2019-02-25T03:01:11.896Z,4.60
2019-02-25T03:03:40.706Z,4.75
2019-02-25T03:06:08.966Z,4.60
2019-02-25T03:08:37.400Z,4.90
2019-02-25T03:11:05.648Z,5.45
2019-02-25T03:13:33.892Z,4.20
2019-02-25T03:16:01.881Z,4.47
2019-02-25T03:18:30.855Z,4.45
2019-02-25T03:20:59.364Z,4.30
2019-02-25T03:23:28.240Z,4.00
2019-02-25T03:25:56.867Z,4.33
2019-02-25T03:28:25.387Z,3.90
2019-02-25T03:30:54.071Z,4.10
2019-02-25T03:33:23.305Z,4.30
2019-02-25T03:35:51.933Z,4.62
2019-02-25T03:38:19.934Z,4.42
2019-02-25T03:40:48.354Z,4.20
2019-02-25T03:43:17.267Z,4.42
2019-02-25T03:45:46.559Z,4.30
2019-02-25T03:48:15.891Z,4.60
2019-02-25T03:50:44.864Z,4.65
2019-02-25T03:53:13.361Z,4.15
2019-02-25T03:55:41.519Z,4.05
2019-02-25T03:58:10.098Z,4.10
2019-02-25T04:00:38.650Z,4.15
2019-02-25T04:03:07.790Z,4.45
2019-02-25T04:05:36.865Z,4.10
2019-02-25T04:08:05.536Z,4.07
2019-02-25T04:10:34.304Z,4.03
2019-02-25T04:13:04.030Z,3.93
2019-02-25T04:15:36.337Z,4.30
2019-02-25T04:18:04.765Z,4.20
2019-02-25T04:20:33.601Z,4.20
2019-02-25T04:23:01.903Z,4.30
2019-02-25T04:25:30.217Z,4.20
2019-02-25T04:28:19.618Z,3.95
2019-02-25T04:30:47.183Z,3.83
2019-02-25T04:33:14.756Z,4.03
2019-02-25T04:35:42.631Z,3.90
2019-02-25T04:38:10.779Z,4.40
2019-02-25T04:40:42.286Z,4.27
2019-02-25T04:43:09.680Z,3.90
2019-02-25T04:45:37.446Z,4.50
2019-02-25T04:48:05.209Z,4.15
2019-02-25T04:52:39.654Z,4.15
2019-02-25T04:55:08.134Z,4.10
2019-02-25T04:57:35.909Z,3.65
2019-02-25T05:00:05.118Z,4.45
2019-02-25T05:02:32.233Z,4.60
2019-02-25T05:04:59.706Z,3.90
2019-02-25T05:07:26.941Z,4.20
2019-02-25T05:09:56.044Z,3.80
2019-02-25T05:12:23.572Z,4.15
2019-02-25T05:14:51.412Z,4.03
2019-02-25T05:17:18.818Z,3.50
2019-02-25T05:19:46.289Z,3.90
2019-02-25T05:22:13.466Z,4.07
2019-02-25T05:24:41.475Z,3.83
2019-02-25T05:27:08.561Z,4.40
2019-02-25T05:29:36.610Z,4.03
2019-02-25T05:32:05.890Z,3.55
2019-02-25T05:34:33.377Z,3.65
2019-02-25T05:37:01.233Z,4.10
2019-02-25T05:39:28.881Z,3.90
2019-02-25T05:41:56.306Z,4.20
2019-02-25T05:44:24.116Z,4.30
2019-02-25T05:46:52.793Z,4.13
2019-02-25T05:49:20.558Z,4.47
2019-02-25T05:51:47.954Z,4.57
2019-02-25T05:54:16.380Z,4.50
2019-02-25T05:56:44.256Z,4.50
2019-02-25T05:59:11.687Z,4.40
2019-02-25T06:01:39.139Z,3.85
2019-02-25T06:04:07.145Z,3.80
2019-02-25T06:06:34.816Z,3.93
2019-02-25T06:09:03.894Z,3.98
2019-02-25T06:11:32.462Z,3.85
2019-02-25T06:14:01.125Z,3.90
2019-02-25T06:16:29.713Z,4.10
2019-02-25T06:18:57.991Z,4.95
2019-02-25T06:24:06.783Z,4.65
2019-02-25T06:26:34.191Z,4.90
2019-02-25T06:29:01.481Z,4.70
2019-02-25T06:31:28.708Z,4.80
2019-02-25T06:33:56.171Z,4.67
2019-02-25T06:36:23.965Z,4.87
2019-02-25T06:38:52.060Z,5.00
2019-02-25T06:41:19.198Z,4.90
2019-02-25T06:43:47.444Z,4.33
2019-02-25T06:46:15.046Z,3.92
2019-02-25T06:48:42.188Z,4.60
2019-02-25T06:51:10.007Z,4.85
2019-02-25T06:55:31.834Z,4.10
2019-02-25T06:57:59.154Z,4.15
2019-02-25T07:00:26.805Z,4.40
2019-02-25T07:02:54.150Z,4.37
2019-02-25T07:05:34.218Z,4.10
2019-02-25T07:08:20.964Z,4.25
2019-02-25T07:11:15.157Z,5.50
2019-02-25T07:13:51.509Z,4.90
2019-02-25T07:16:41.934Z,5.10
2019-02-25T07:19:23.555Z,4.20
2019-02-25T07:21:59.704Z,4.80
2019-02-25T07:24:52.617Z,5.08
2019-02-25T07:27:50.058Z,5.70
2019-02-25T07:30:37.606Z,5.00
2019-02-25T07:33:27.991Z,5.05
2019-02-25T07:36:14.968Z,4.60
2019-02-25T07:41:35.471Z,6.00
2019-02-25T07:44:16.437Z,5.25
2019-02-25T07:46:56.386Z,4.50
2019-02-25T07:49:32.910Z,4.70
2019-02-25T07:52:09.168Z,4.33
2019-02-25T07:54:46.357Z,4.35
2019-02-25T07:57:23.435Z,5.27
2019-02-25T07:59:56.575Z,4.97
2019-02-25T08:02:56.755Z,4.93
2019-02-25T08:05:44.369Z,5.40
2019-02-25T08:08:31.147Z,5.65
2019-02-25T08:11:06.117Z,5.85
2019-02-25T08:13:41.354Z,5.60
2019-02-25T08:16:34.322Z,6.65
2019-02-25T08:19:16.932Z,6.40
2019-02-25T08:22:04.791Z,6.10
2019-02-25T08:24:50.347Z,6.33
2019-02-25T08:27:28.902Z,6.12
2019-02-25T08:30:07.165Z,7.45
2019-02-25T08:33:00.085Z,8.00
2019-02-25T08:36:43.671Z,7.60
2019-02-25T08:39:28.554Z,7.83
2019-02-25T08:42:02.619Z,8.30
2019-02-25T08:44:49.637Z,7.37
2019-02-25T08:47:24.542Z,8.08
2019-02-25T08:49:54.735Z,7.50
2019-02-25T08:52:22.238Z,8.50
2019-02-25T08:54:49.615Z,8.30
2019-02-25T08:57:17.415Z,8.30
2019-02-25T08:59:45.114Z,8.60
2019-02-25T09:02:13.209Z,8.40
2019-02-25T09:07:07.022Z,8.40
2019-02-25T09:09:34.085Z,8.50
2019-02-25T09:12:01.597Z,8.10
2019-02-25T09:14:29.010Z,8.20
2019-02-25T09:16:57.126Z,7.80
2019-02-25T09:19:24.194Z,7.55
2019-02-25T09:21:51.527Z,8.55
2019-02-25T09:24:19.372Z,9.03
2019-02-25T09:26:46.556Z,8.10
2019-02-25T09:29:13.663Z,8.75
2019-02-25T09:31:41.148Z,7.50
2019-02-25T09:34:09.095Z,8.45
2019-02-25T09:36:36.457Z,7.75
2019-02-25T09:39:09.018Z,8.30
2019-02-25T09:41:37.944Z,7.35
2019-02-25T09:44:05.402Z,8.28
2019-02-25T09:46:32.522Z,8.70
2019-02-25T09:49:00.931Z,7.93
2019-02-25T09:51:28.821Z,8.30
2019-02-25T09:53:56.851Z,7.55
2019-02-25T09:56:24.309Z,7.20
2019-02-25T09:58:52.115Z,7.70
2019-02-25T10:01:20.102Z,7.10
2019-02-25T10:03:48.223Z,7.08
2019-02-25T10:06:15.438Z,7.30
2019-02-25T10:08:42.820Z,7.67
2019-02-25T10:11:10.463Z,7.47
2019-02-25T10:13:38.429Z,6.70
2019-02-25T10:16:05.784Z,7.28
2019-02-25T10:18:34.054Z,6.50
2019-02-25T10:21:01.298Z,7.40
2019-02-25T10:23:29.484Z,6.50
2019-02-25T10:25:57.363Z,7.28
2019-02-25T10:28:25.574Z,6.50
2019-02-25T10:30:53.392Z,6.00
2019-02-25T10:33:21.817Z,6.80
2019-02-25T10:35:49.537Z,6.67
2019-02-25T10:38:19.499Z,6.03
2019-02-25T10:40:49.595Z,6.55
2019-02-25T10:43:17.965Z,6.43
2019-02-25T10:45:46.236Z,6.70
2019-02-25T10:48:15.598Z,6.37
2019-02-25T10:50:44.807Z,6.20
2019-02-25T10:53:13.647Z,5.72
2019-02-25T10:56:05.788Z,6.67
2019-02-25T10:58:35.895Z,6.17
2019-02-25T11:01:04.383Z,5.58
2019-02-25T11:03:32.105Z,5.83
2019-02-25T11:06:03.174Z,5.17
2019-02-25T11:08:31.907Z,5.75
2019-02-25T11:11:10.462Z,6.30
2019-02-25T11:13:39.150Z,5.17
2019-02-25T11:16:07.075Z,5.40
2019-02-25T11:18:35.111Z,5.08
2019-02-25T11:21:05.913Z,5.50
2019-02-25T11:23:33.320Z,5.15
2019-02-25T11:26:02.270Z,5.08
2019-02-25T11:28:31.801Z,5.72
2019-02-25T11:31:00.254Z,5.15
2019-02-25T11:33:30.277Z,5.83
2019-02-25T11:35:57.891Z,4.90
2019-02-25T11:38:28.219Z,4.87
2019-02-25T11:40:56.300Z,5.33
2019-02-25T11:43:24.379Z,5.08
2019-02-25T11:45:53.150Z,4.70
2019-02-25T11:48:22.595Z,4.85
2019-02-25T11:50:51.125Z,4.55
2019-02-25T11:53:19.539Z,5.08
2019-02-25T11:55:47.992Z,4.37
2019-02-25T11:58:15.921Z,5.30
2019-02-25T12:00:44.026Z,4.55
2019-02-25T12:03:12.401Z,4.47
2019-02-25T12:05:40.230Z,4.72
2019-02-25T12:08:08.366Z,4.50
2019-02-25T12:10:36.745Z,4.75
2019-02-25T12:13:05.721Z,4.42
2019-02-25T12:15:33.506Z,4.70
2019-02-25T12:18:01.860Z,4.42
2019-02-25T12:20:30.495Z,4.37
2019-02-25T12:22:58.440Z,4.33
2019-02-25T12:25:27.203Z,4.35
2019-02-25T12:27:56.582Z,4.40
2019-02-25T12:30:24.791Z,3.85
2019-02-25T12:32:54.280Z,4.30
2019-02-25T12:35:23.010Z,4.45
2019-02-25T12:37:50.857Z,3.55
2019-02-25T12:40:19.214Z,3.90
2019-02-25T12:42:47.587Z,3.98
2019-02-25T12:45:16.834Z,3.83
2019-02-25T12:47:45.338Z,4.30
2019-02-25T12:50:13.451Z,4.33
2019-02-25T12:52:41.787Z,3.58
2019-02-25T12:55:10.429Z,4.15
2019-02-25T12:57:38.866Z,3.87
2019-02-25T13:00:10.555Z,4.33
2019-02-25T13:02:38.425Z,4.10
2019-02-25T13:05:08.239Z,3.83
2019-02-25T13:07:36.915Z,4.12
2019-02-25T13:10:06.987Z,3.77
2019-02-25T13:12:34.978Z,3.72
2019-02-25T13:15:13.158Z,4.28
2019-02-25T13:17:35.710Z,3.30
2019-02-25T13:20:04.262Z,3.83
2019-02-25T13:22:32.550Z,3.55
2019-02-25T13:25:03.195Z,3.77
2019-02-25T13:27:32.191Z,3.85
2019-02-25T13:30:01.851Z,3.62
2019-02-25T13:32:30.069Z,4.20
2019-02-25T13:34:58.112Z,3.10
2019-02-25T13:37:26.104Z,3.50
2019-02-25T13:39:54.228Z,3.30
2019-02-25T13:42:23.129Z,3.20
2019-02-25T13:44:53.548Z,3.05
2019-02-25T13:47:21.829Z,2.83
2019-02-25T13:49:50.824Z,3.30
2019-02-25T13:52:19.744Z,2.80
2019-02-25T13:54:48.029Z,3.00
2019-02-25T13:57:16.249Z,3.05
2019-02-25T13:59:44.867Z,3.23
2019-02-25T14:02:13.426Z,3.40
2019-02-25T14:04:41.810Z,3.25
2019-02-25T14:07:11.295Z,2.60
2019-02-25T14:09:39.950Z,2.70
2019-02-25T14:12:08.867Z,2.60
2019-02-25T14:14:37.174Z,2.80
2019-02-25T14:17:05.432Z,2.90
2019-02-25T14:19:33.427Z,2.67
2019-02-25T14:22:01.662Z,2.22
2019-02-25T14:24:31.120Z,1.90
2019-02-25T14:26:59.985Z,2.10
2019-02-25T14:29:29.184Z,2.10
2019-02-25T14:31:57.537Z,2.30
2019-02-25T14:34:25.261Z,2.00
2019-02-25T14:36:54.922Z,3.12
2019-02-25T14:39:27.764Z,2.20
2019-02-25T14:41:54.852Z,1.70
2019-02-25T14:44:30.140Z,1.80
2019-02-25T14:46:58.780Z,2.50
2019-02-25T14:49:29.986Z,1.60
2019-02-25T14:51:58.854Z,2.00
2019-02-25T14:54:29.188Z,1.93
2019-02-25T14:56:57.964Z,2.17
2019-02-25T14:59:28.161Z,1.85
2019-02-25T15:01:59.310Z,2.23
2019-02-25T15:04:28.435Z,2.05
2019-02-25T15:06:56.419Z,2.10
2019-02-25T15:09:24.359Z,1.75
2019-02-25T15:11:55.555Z,2.12
2019-02-25T15:14:22.395Z,2.00
2019-02-25T15:16:50.248Z,3.00
2019-02-25T15:19:18.068Z,1.92
2019-02-25T15:21:47.511Z,2.22
2019-02-25T15:24:15.580Z,2.20
2019-02-25T15:26:43.630Z,2.00
2019-02-25T15:29:11.630Z,2.08
2019-02-25T15:31:40.057Z,1.50
2019-02-25T15:34:08.952Z,1.75
2019-02-25T15:36:38.459Z,2.10
2019-02-25T15:39:10.889Z,1.92
2019-02-25T15:41:38.515Z,1.77
2019-02-25T15:44:09.000Z,1.95
2019-02-25T15:46:38.162Z,1.90
2019-02-25T15:49:06.017Z,2.05
2019-02-25T15:51:35.117Z,1.90
2019-02-25T15:54:04.279Z,2.50
2019-02-25T15:56:32.281Z,1.80
2019-02-25T15:59:01.336Z,2.10
2019-02-25T16:01:30.702Z,2.00
2019-02-25T16:04:02.178Z,2.37
2019-02-25T16:06:31.346Z,1.92
2019-02-25T16:09:00.876Z,2.20
2019-02-25T16:11:37.092Z,2.85
2019-02-25T16:14:38.981Z,2.58
2019-02-25T16:17:08.276Z,2.27
2019-02-25T16:19:41.543Z,2.47
2019-02-25T16:22:07.945Z,2.30
2019-02-25T16:24:36.893Z,1.92
2019-02-25T16:27:04.891Z,1.98
2019-02-25T16:29:33.004Z,1.92
2019-02-25T16:32:01.929Z,2.37
2019-02-25T16:34:32.022Z,2.10
2019-02-25T16:37:02.594Z,2.20
2019-02-25T16:39:30.853Z,2.25
2019-02-25T16:42:00.427Z,1.97
2019-02-25T16:44:29.300Z,1.85
2019-02-25T16:46:57.306Z,2.10
2019-02-25T16:49:25.131Z,1.90
2019-02-25T16:51:57.203Z,1.67
2019-02-25T16:54:25.329Z,2.35
2019-02-25T16:56:53.414Z,2.25
2019-02-25T16:59:24.942Z,2.08
2019-02-25T17:01:55.795Z,2.37
2019-02-25T17:04:25.504Z,2.30
2019-02-25T17:06:57.366Z,2.25
2019-02-25T17:09:28.758Z,2.15
2019-02-25T17:11:57.960Z,1.90
2019-02-25T17:14:27.319Z,2.15
2019-02-25T17:16:57.029Z,1.77
2019-02-25T17:19:25.299Z,2.05
2019-02-25T17:21:54.057Z,2.20
2019-02-25T17:24:26.450Z,2.33
2019-02-25T17:26:55.511Z,2.17
2019-02-25T17:29:25.104Z,2.33
2019-02-25T17:31:59.133Z,2.83
2019-02-25T17:34:27.372Z,2.65
2019-02-25T17:36:55.873Z,2.50
2019-02-25T17:39:24.428Z,2.90
2019-02-25T17:41:53.243Z,2.25
2019-02-25T17:44:24.246Z,2.33
2019-02-25T17:46:52.473Z,1.95
2019-02-25T17:49:20.171Z,2.35
2019-02-25T17:51:49.571Z,2.05
2019-02-25T17:54:19.681Z,2.37
2019-02-25T17:56:51.863Z,2.10
2019-02-25T17:59:22.993Z,2.65
2019-02-25T18:01:51.695Z,3.15
2019-02-25T18:04:19.734Z,2.80
2019-02-25T18:06:47.846Z,3.22
2019-02-25T18:09:16.409Z,3.08
2019-02-25T18:11:47.228Z,3.50
2019-02-25T18:14:17.372Z,3.50
2019-02-25T18:16:48.834Z,3.20
2019-02-25T18:19:18.638Z,3.10
2019-02-25T18:21:47.418Z,3.02
2019-02-25T18:24:16.919Z,3.30
2019-02-25T18:26:46.928Z,2.80
2019-02-25T18:29:15.998Z,3.05
2019-02-25T18:31:45.621Z,2.70
2019-02-25T18:34:15.073Z,2.92
2019-02-25T18:36:45.170Z,3.77
2019-02-25T18:39:13.901Z,3.40
2019-02-25T18:41:42.041Z,4.05
2019-02-25T18:44:11.383Z,4.12
2019-02-25T18:46:41.350Z,4.03
2019-02-25T18:49:11.704Z,3.33
2019-02-25T18:51:40.859Z,3.77
2019-02-25T18:54:08.784Z,3.47
2019-02-25T18:56:38.204Z,3.35
2019-02-25T18:59:08.743Z,3.55
2019-02-25T19:01:36.094Z,3.58
2019-02-25T19:04:03.827Z,3.42
2019-02-25T19:06:31.537Z,3.58
2019-02-25T19:09:00.211Z,3.55
2019-02-25T19:11:28.514Z,3.40
2019-02-25T19:14:00.511Z,3.80
2019-02-25T19:16:26.911Z,3.80
2019-02-25T19:18:55.220Z,4.85
2019-02-25T19:21:25.555Z,4.42
2019-02-25T19:23:54.700Z,4.30
2019-02-25T19:26:22.549Z,4.58
2019-02-25T19:28:52.328Z,4.00
2019-02-25T19:31:21.037Z,4.23
2019-02-25T19:33:49.906Z,3.65
2019-02-25T19:36:19.159Z,3.25
2019-02-25T19:38:49.801Z,3.35
2019-02-25T19:41:20.689Z,3.75
2019-02-25T19:43:58.679Z,3.77
2019-02-25T19:46:20.258Z,4.20
2019-02-25T19:48:51.854Z,3.85
2019-02-25T19:51:20.712Z,4.17
2019-02-25T19:53:50.826Z,4.35
2019-02-25T19:56:20.991Z,4.83
2019-02-25T19:58:49.719Z,5.00
2019-02-25T20:01:18.774Z,4.50
2019-02-25T20:03:48.350Z,4.53
2019-02-25T20:06:19.177Z,4.83
2019-02-25T20:08:48.618Z,4.15
2019-02-25T20:11:16.938Z,3.83
2019-02-25T20:13:45.954Z,4.12
2019-02-25T20:16:18.052Z,3.92
2019-02-25T20:18:43.885Z,4.22
2019-02-25T20:21:12.019Z,4.10
2019-02-25T20:23:40.696Z,4.15
2019-02-25T20:26:11.319Z,4.00
2019-02-25T20:28:41.257Z,5.07
2019-02-25T20:31:12.729Z,5.05
2019-02-25T20:33:41.088Z,5.57
2019-02-25T20:36:10.178Z,5.70
2019-02-25T20:38:39.710Z,6.93
2019-02-25T20:41:08.156Z,4.85
2019-02-25T20:43:36.513Z,5.00
2019-02-25T20:46:06.095Z,4.85
2019-02-25T20:48:35.736Z,5.00
2019-02-25T20:51:07.157Z,4.70
2019-02-25T20:53:38.490Z,4.08
2019-02-25T20:56:08.111Z,5.00
2019-02-25T20:58:38.320Z,4.10
2019-02-25T21:01:09.210Z,4.50
2019-02-25T21:03:41.546Z,4.23
2019-02-25T21:06:07.788Z,5.03
2019-02-25T21:08:37.441Z,5.67
2019-02-25T21:11:10.962Z,5.45
2019-02-25T21:13:38.071Z,5.30
2019-02-25T21:16:08.221Z,5.90
2019-02-25T21:18:37.227Z,5.70
2019-02-25T21:21:07.155Z,5.60
2019-02-25T21:23:35.829Z,4.30
2019-02-25T21:26:04.887Z,5.60
2019-02-25T21:28:36.478Z,4.35
2019-02-25T21:31:10.986Z,5.35
2019-02-25T21:33:37.489Z,4.40
2019-02-25T21:36:05.244Z,4.50
2019-02-25T21:38:33.004Z,5.05
2019-02-25T21:41:01.633Z,5.40
2019-02-25T21:43:29.712Z,5.45
2019-02-25T21:46:00.909Z,5.77
2019-02-25T21:48:30.253Z,5.40
2019-02-25T21:51:02.301Z,5.00
2019-02-25T21:53:28.741Z,5.65
2019-02-25T21:55:59.207Z,5.53
2019-02-25T21:58:27.680Z,4.60
2019-02-25T22:00:56.272Z,5.07
2019-02-25T22:03:24.806Z,5.13
2019-02-25T22:05:54.092Z,4.92
2019-02-25T22:08:24.456Z,4.80
2019-02-25T22:10:53.915Z,4.60
2019-02-25T22:13:21.876Z,4.80
2019-02-25T22:15:50.468Z,4.70
2019-02-25T22:18:18.496Z,5.25
2019-02-25T22:20:47.549Z,6.65
2019-02-25T22:23:15.959Z,6.75
2019-02-25T22:25:45.305Z,5.87
2019-02-25T22:28:12.712Z,6.50
2019-02-25T22:30:42.785Z,6.60
2019-02-25T22:33:23.866Z,5.35
2019-02-25T22:35:42.705Z,5.07
2019-02-25T22:38:11.700Z,5.20
2019-02-25T22:40:39.898Z,5.90
2019-02-25T22:43:07.724Z,5.50
2019-02-25T22:45:38.033Z,5.90
2019-02-25T22:48:06.957Z,5.03
2019-02-25T22:50:37.659Z,5.70
2019-02-25T22:53:06.790Z,5.50
2019-02-25T22:55:39.324Z,5.80
2019-02-25T22:58:08.173Z,5.90
2019-02-25T23:00:53.305Z,5.50
2019-02-25T23:03:23.214Z,5.67
2019-02-25T23:05:53.385Z,4.85
2019-02-25T23:08:23.966Z,5.50
2019-02-25T23:10:54.187Z,6.10
2019-02-25T23:13:24.809Z,5.50
2019-02-25T23:15:53.599Z,5.30
2019-02-25T23:18:25.129Z,4.90
2019-02-25T23:20:54.769Z,4.85
2019-02-25T23:23:23.887Z,4.97
2019-02-25T23:25:54.146Z,5.20
2019-02-25T23:30:14.812Z,4.50
2019-02-25T23:32:42.329Z,5.20
2019-02-25T23:35:13.660Z,6.10
2019-02-25T23:37:39.947Z,5.40
2019-02-25T23:40:09.512Z,4.93
2019-02-25T23:42:37.378Z,5.47
2019-02-25T23:45:06.900Z,5.45
2019-02-25T23:47:37.361Z,5.50
2019-02-25T23:50:06.512Z,5.13
2019-02-25T23:52:37.555Z,5.20
2019-02-25T23:55:06.893Z,4.83
2019-02-25T23:57:35.282Z,5.30
